Time;durP1;ratioP1;P1;durP2;ratioP2;P2;SDS_P1;SDS_P2;PMS_P1;PMS_P2;Temp;Humidity;BMP_temperature;BMP_pressure;BME280_temperature;BME280_humidity;BME280_pressure;Samples;Min_cycle;Max_cycle;Signal;HPM_P1;HPM_P2
2021/10/07 00:00:54;;;;;;;0.00;0.00;;;11.10;99.90;;;;;;5052476;28;20103;-78
2021/10/07 00:03:19;;;;;;;0.00;0.00;;;11.10;99.90;;;;;;5052434;28;20021;-77
2021/10/07 00:05:45;;;;;;;0.00;0.00;;;11.10;99.90;;;;;;5052511;28;20472;-77
2021/10/07 00:08:11;;;;;;;0.00;0.00;;;11.10;99.90;;;;;;5052695;28;20025;-77
2021/10/07 00:10:37;;;;;;;0.00;0.00;;;11.10;99.90;;;;;;5051039;28;20037;-77
2021/10/07 00:13:02;;;;;;;0.00;0.00;;;11.10;99.90;;;;;;5052259;28;20400;-77
2021/10/07 00:15:29;;;;;;;0.00;0.00;;;11.10;99.90;;;;;;5052408;28;20021;-77
2021/10/07 00:17:57;;;;;;;0.00;0.00;;;11.00;99.90;;;;;;5052221;28;20025;-77
2021/10/07 00:20:23;;;;;;;0.00;0.00;;;11.00;99.90;;;;;;5052279;28;20033;-77
2021/10/07 00:22:49;;;;;;;0.00;0.00;;;11.00;99.90;;;;;;5051184;28;20082;-77
2021/10/07 00:25:16;;;;;;;0.63;0.52;;;11.00;99.90;;;;;;5051827;28;20053;-77
2021/10/07 00:27:42;;;;;;;0.13;0.13;;;11.00;99.90;;;;;;5052380;28;20029;-77
2021/10/07 00:30:21;;;;;;;0.10;0.10;;;11.00;99.90;;;;;;5052210;28;20025;-77
2021/10/07 00:33:07;;;;;;;0.00;0.00;;;11.00;99.90;;;;;;5052397;28;20036;-77
2021/10/07 00:40:49;;;;;;;7.88;0.55;;;11.00;99.90;;;;;;5052152;28;20395;-77
2021/10/07 00:43:16;;;;;;;0.00;0.00;;;11.00;99.90;;;;;;5052404;28;20024;-77
2021/10/07 00:45:48;;;;;;;0.00;0.00;;;11.00;99.90;;;;;;5052336;28;20057;-77
2021/10/07 00:48:13;;;;;;;0.00;0.00;;;11.00;99.90;;;;;;5052210;28;20404;-77
2021/10/07 00:50:39;;;;;;;0.10;0.00;;;11.00;99.90;;;;;;5051903;28;20033;-77
2021/10/07 00:53:05;;;;;;;0.00;0.00;;;11.00;99.90;;;;;;5052376;28;20021;-77
2021/10/07 00:55:30;;;;;;;0.20;0.20;;;10.90;99.90;;;;;;5053271;28;20431;-77
2021/10/07 00:57:56;;;;;;;0.00;0.00;;;10.90;99.90;;;;;;5055638;28;20025;-77
2021/10/07 01:00:22;;;;;;;1.65;0.80;;;10.90;99.90;;;;;;5055718;28;20033;-77
2021/10/07 01:02:48;;;;;;;0.68;0.15;;;10.90;99.90;;;;;;5055330;28;20021;-77
2021/10/07 01:05:13;;;;;;;0.08;0.08;;;10.80;99.90;;;;;;5055547;28;20111;-77
2021/10/07 01:07:39;;;;;;;0.00;0.00;;;10.80;99.90;;;;;;5055691;28;20057;-77
2021/10/07 01:10:05;;;;;;;0.30;0.30;;;10.80;99.90;;;;;;5054754;28;20033;-76
2021/10/07 01:12:31;;;;;;;0.05;0.05;;;10.70;99.90;;;;;;5055395;28;20022;-77
2021/10/07 01:14:58;;;;;;;0.35;0.35;;;10.70;99.90;;;;;;5055239;28;20075;-77
2021/10/07 01:17:29;;;;;;;0.00;0.00;;;10.70;99.90;;;;;;5054730;28;20055;-77
2021/10/07 01:19:57;;;;;;;0.13;0.13;;;10.60;99.90;;;;;;5055087;28;20527;-77
2021/10/07 01:22:25;;;;;;;0.00;0.00;;;10.60;99.90;;;;;;5055038;28;20040;-77
2021/10/07 01:24:51;;;;;;;2.83;0.52;;;10.60;99.90;;;;;;5054823;28;20080;-76
2021/10/07 01:27:20;;;;;;;0.00;0.00;;;10.60;99.90;;;;;;5055008;28;20029;-75
2021/10/07 01:29:52;;;;;;;0.00;0.00;;;10.70;99.90;;;;;;5054907;28;20476;-77
2021/10/07 01:32:18;;;;;;;0.00;0.00;;;10.70;99.90;;;;;;5054952;28;20017;-77
2021/10/07 01:34:44;;;;;;;0.20;0.20;;;10.70;99.90;;;;;;5054995;28;20036;-77
2021/10/07 01:37:10;;;;;;;0.00;0.00;;;10.70;99.90;;;;;;5053727;28;20043;-77
2021/10/07 01:39:35;;;;;;;0.00;0.00;;;10.70;99.90;;;;;;5054740;28;20036;-77
2021/10/07 01:42:01;;;;;;;0.10;0.10;;;10.70;99.90;;;;;;5054477;28;20033;-77
2021/10/07 01:44:26;;;;;;;0.00;0.00;;;10.70;99.90;;;;;;5054749;28;20021;-77
2021/10/07 01:46:53;;;;;;;0.10;0.10;;;10.70;99.90;;;;;;5054857;28;20029;-77
2021/10/07 01:49:19;;;;;;;0.00;0.00;;;10.70;99.90;;;;;;5054731;28;20021;-77
2021/10/07 01:51:45;;;;;;;0.00;0.00;;;10.70;99.90;;;;;;5054549;28;20495;-75
2021/10/07 01:54:11;;;;;;;0.45;0.25;;;10.80;99.90;;;;;;5054232;28;20025;-77
2021/10/07 01:56:37;;;;;;;0.80;0.80;;;10.80;99.90;;;;;;5054371;28;20056;-77
2021/10/07 01:59:05;;;;;;;0.00;0.00;;;10.80;99.90;;;;;;5054563;28;20029;-77
2021/10/07 02:01:31;;;;;;;0.00;0.00;;;10.80;99.90;;;;;;5054516;28;20443;-77
2021/10/07 02:03:57;;;;;;;2.53;2.30;;;10.80;99.90;;;;;;5054312;28;20064;-75
2021/10/07 02:06:22;;;;;;;1.02;0.65;;;10.80;99.90;;;;;;5053881;28;20061;-77
2021/10/07 02:08:48;;;;;;;0.00;0.00;;;10.80;99.90;;;;;;5052871;28;20055;-77
2021/10/07 02:11:14;;;;;;;0.00;0.00;;;10.80;99.90;;;;;;5054000;28;20116;-77
2021/10/07 02:13:39;;;;;;;0.00;0.00;;;10.70;99.90;;;;;;5054328;28;20045;-77
2021/10/07 02:16:05;;;;;;;0.10;0.10;;;10.70;99.90;;;;;;5053712;28;20400;-77
2021/10/07 02:18:31;;;;;;;0.00;0.00;;;10.70;99.90;;;;;;5054084;28;20068;-77
2021/10/07 02:20:58;;;;;;;0.00;0.00;;;10.70;99.90;;;;;;5054270;28;20025;-77
2021/10/07 02:23:23;;;;;;;0.00;0.00;;;10.70;99.90;;;;;;5053118;28;20048;-77
2021/10/07 02:25:49;;;;;;;0.00;0.00;;;10.80;99.90;;;;;;5053857;28;20048;-77
2021/10/07 02:28:15;;;;;;;0.05;0.05;;;10.70;99.90;;;;;;5053867;28;20032;-77
2021/10/07 02:30:42;;;;;;;0.00;0.00;;;10.70;99.90;;;;;;5053960;28;20020;-77
2021/10/07 02:33:08;;;;;;;0.32;0.32;;;10.60;99.90;;;;;;5053827;28;20052;-77
2021/10/07 02:35:34;;;;;;;0.00;0.00;;;10.60;99.90;;;;;;5053600;28;20057;-77
2021/10/07 02:38:00;;;;;;;0.43;0.38;;;10.60;99.90;;;;;;5053701;28;20017;-76
2021/10/07 02:40:27;;;;;;;0.00;0.00;;;10.60;99.90;;;;;;5052507;28;20029;-77
2021/10/07 02:42:54;;;;;;;0.00;0.00;;;10.60;99.90;;;;;;5054068;28;20452;-77
2021/10/07 02:45:20;;;;;;;0.80;0.80;;;10.60;99.90;;;;;;5053800;28;20108;-77
2021/10/07 02:47:46;;;;;;;0.00;0.00;;;10.50;99.90;;;;;;5053381;28;20025;-77
2021/10/07 02:50:13;;;;;;;3.20;1.98;;;10.50;99.90;;;;;;5053506;28;20027;-77
2021/10/07 02:52:39;;;;;;;0.00;0.00;;;10.50;99.90;;;;;;5053375;28;20029;-77
2021/10/07 02:55:05;;;;;;;0.00;0.00;;;10.50;99.90;;;;;;5053339;28;20434;-77
2021/10/07 02:57:30;;;;;;;0.00;0.00;;;10.50;99.90;;;;;;5053710;28;20050;-77
2021/10/07 02:59:56;;;;;;;0.00;0.00;;;10.50;99.90;;;;;;5051926;28;20021;-77
2021/10/07 03:02:22;;;;;;;0.90;0.45;;;10.40;99.90;;;;;;5053169;28;20415;-77
2021/10/07 03:04:52;;;;;;;0.00;0.00;;;10.50;99.90;;;;;;5053132;28;20166;-77
2021/10/07 03:07:18;;;;;;;0.17;0.17;;;10.50;99.90;;;;;;5053203;28;20048;-77
2021/10/07 03:09:44;;;;;;;0.43;0.40;;;10.40;99.90;;;;;;5053495;28;20025;-77
2021/10/07 03:12:09;;;;;;;0.00;0.00;;;10.40;99.90;;;;;;5053162;28;20032;-77
2021/10/07 03:14:39;;;;;;;0.00;0.00;;;10.40;99.90;;;;;;5053080;28;20025;-77
2021/10/07 03:17:05;;;;;;;0.10;0.10;;;10.30;99.90;;;;;;5035862;28;20083;-77
2021/10/07 03:19:32;;;;;;;0.00;0.00;;;10.40;99.90;;;;;;5032734;28;20022;-77
2021/10/07 03:21:58;;;;;;;1.65;1.38;;;10.30;99.90;;;;;;5033051;28;20036;-77
2021/10/07 03:24:24;;;;;;;0.00;0.00;;;10.30;99.90;;;;;;5032381;28;20106;-77
2021/10/07 03:26:49;;;;;;;0.10;0.10;;;10.30;99.90;;;;;;5032872;28;20029;-77
2021/10/07 03:29:15;;;;;;;0.00;0.00;;;10.20;99.90;;;;;;5032840;28;20464;-77
2021/10/07 03:31:41;;;;;;;0.10;0.10;;;10.30;99.90;;;;;;5033119;28;20029;-77
2021/10/07 03:34:06;;;;;;;0.10;0.10;;;10.20;99.90;;;;;;5032879;28;20026;-77
2021/10/07 03:36:32;;;;;;;0.08;0.08;;;10.20;99.90;;;;;;5032940;28;20022;-77
2021/10/07 03:38:58;;;;;;;0.00;0.00;;;10.20;99.90;;;;;;5032690;28;20026;-77
2021/10/07 03:41:23;;;;;;;0.00;0.00;;;10.20;99.90;;;;;;5032590;28;20025;-77
2021/10/07 03:43:49;;;;;;;0.00;0.00;;;10.20;99.90;;;;;;5032983;28;20108;-77
2021/10/07 03:46:17;;;;;;;0.00;0.00;;;10.20;99.90;;;;;;5032726;28;20034;-77
2021/10/07 03:48:43;;;;;;;0.10;0.10;;;10.10;99.90;;;;;;5033042;28;20037;-77
2021/10/07 03:51:09;;;;;;;1.02;0.82;;;10.10;99.90;;;;;;5032519;28;20021;-77
2021/10/07 03:53:35;;;;;;;0.00;0.00;;;10.10;99.90;;;;;;5032690;28;20017;-77
2021/10/07 03:56:00;;;;;;;0.00;0.00;;;10.10;99.90;;;;;;5032796;28;20401;-77
2021/10/07 03:58:26;;;;;;;0.00;0.00;;;10.00;99.90;;;;;;5032560;28;20030;-77
2021/10/07 04:00:52;;;;;;;0.00;0.00;;;10.00;99.90;;;;;;5032672;28;20041;-77
2021/10/07 04:03:17;;;;;;;0.00;0.00;;;10.00;99.90;;;;;;5032663;28;20022;-77
2021/10/07 04:05:43;;;;;;;0.00;0.00;;;10.00;99.90;;;;;;5032632;28;20107;-77
2021/10/07 04:08:09;;;;;;;0.00;0.00;;;10.00;99.90;;;;;;5032541;28;20029;-77
2021/10/07 04:10:35;;;;;;;0.73;0.47;;;10.00;99.90;;;;;;5031996;28;20500;-77
2021/10/07 04:13:00;;;;;;;0.00;0.00;;;10.00;99.90;;;;;;5032687;28;20052;-76
2021/10/07 04:15:26;;;;;;;0.30;0.30;;;10.00;99.90;;;;;;5032594;28;20480;-77
2021/10/07 04:17:52;;;;;;;0.00;0.00;;;10.00;99.90;;;;;;5032170;28;20025;-77
2021/10/07 04:20:18;;;;;;;0.00;0.00;;;10.00;99.90;;;;;;5032476;28;20028;-77
2021/10/07 04:22:43;;;;;;;0.00;0.00;;;10.10;99.90;;;;;;5032646;28;20431;-77
2021/10/07 04:25:09;;;;;;;0.00;0.00;;;10.00;99.90;;;;;;5031811;28;20115;-77
2021/10/07 04:27:35;;;;;;;1.00;0.52;;;10.00;99.90;;;;;;5032638;28;20397;-77
2021/10/07 04:30:05;;;;;;;5.07;1.98;;;10.00;99.90;;;;;;5034214;28;20068;-77
2021/10/07 04:32:31;;;;;;;0.00;0.00;;;9.90;99.90;;;;;;5036115;28;20472;-77
2021/10/07 04:34:56;;;;;;;0.03;0.03;;;10.00;99.90;;;;;;5036063;28;20029;-77
2021/10/07 04:37:22;;;;;;;0.00;0.00;;;10.00;99.90;;;;;;5036266;28;20446;-77
2021/10/07 04:39:48;;;;;;;0.00;0.00;;;10.10;99.90;;;;;;5036163;28;20101;-77
2021/10/07 04:42:14;;;;;;;0.30;0.30;;;10.10;99.90;;;;;;5035900;28;20030;-77
2021/10/07 04:44:39;;;;;;;0.20;0.17;;;10.10;99.90;;;;;;5036024;28;20103;-77
2021/10/07 04:47:05;;;;;;;0.00;0.00;;;10.20;99.90;;;;;;5035119;28;20382;-77
2021/10/07 04:49:31;;;;;;;16.33;0.82;;;10.20;99.90;;;;;;5035813;28;20025;-77
2021/10/07 04:51:57;;;;;;;0.00;0.00;;;10.20;99.90;;;;;;5035947;28;20025;-77
2021/10/07 04:54:23;;;;;;;0.20;0.20;;;10.20;99.90;;;;;;5035866;28;20029;-77
2021/10/07 04:56:49;;;;;;;0.00;0.00;;;10.20;99.90;;;;;;5034249;28;20081;-77
2021/10/07 04:59:14;;;;;;;0.00;0.00;;;10.20;99.90;;;;;;5035318;28;20495;-77
2021/10/07 05:01:40;;;;;;;0.15;0.15;;;10.20;99.90;;;;;;5035692;28;20447;-77
2021/10/07 05:04:06;;;;;;;1.40;0.57;;;10.10;99.90;;;;;;5035602;28;20107;-77
2021/10/07 05:06:31;;;;;;;0.00;0.00;;;10.10;99.90;;;;;;5034121;28;20030;-77
2021/10/07 05:08:57;;;;;;;0.00;0.00;;;10.10;99.90;;;;;;5035435;28;20532;-77
2021/10/07 05:11:23;;;;;;;0.00;0.00;;;10.00;99.90;;;;;;5035073;28;20038;-77
2021/10/07 05:13:49;;;;;;;0.00;0.00;;;10.00;99.90;;;;;;5035489;28;20061;-77
2021/10/07 05:16:15;;;;;;;0.00;0.00;;;10.00;99.90;;;;;;5035078;28;20112;-77
2021/10/07 05:18:40;;;;;;;0.00;0.00;;;10.00;99.90;;;;;;5035366;28;20100;-77
2021/10/07 05:21:06;;;;;;;0.15;0.15;;;10.00;99.90;;;;;;5035103;28;20477;-75
2021/10/07 05:23:34;;;;;;;0.10;0.10;;;10.00;99.90;;;;;;5034683;28;20069;-77
2021/10/07 05:26:00;;;;;;;0.00;0.00;;;10.00;99.90;;;;;;5033595;28;20455;-77
2021/10/07 05:28:26;;;;;;;0.10;0.10;;;9.90;99.90;;;;;;5035066;28;20033;-77
2021/10/07 05:30:52;;;;;;;1.08;0.85;;;9.90;99.90;;;;;;5047748;28;20395;-77
2021/10/07 05:33:20;;;;;;;0.28;0.28;;;9.90;99.90;;;;;;5058252;28;20021;-77
2021/10/07 05:35:46;;;;;;;0.00;0.00;;;9.90;99.90;;;;;;5053444;28;20021;-77
2021/10/07 05:38:12;;;;;;;0.00;0.00;;;9.90;99.90;;;;;;5055427;28;20411;-77
2021/10/07 05:40:38;;;;;;;0.10;0.10;;;9.90;99.90;;;;;;5074059;28;20048;-77
2021/10/07 05:43:04;;;;;;;0.00;0.00;;;9.80;99.90;;;;;;5074545;28;20067;-77
2021/10/07 05:45:29;;;;;;;14.90;0.52;;;9.90;99.90;;;;;;5074660;28;20027;-76
2021/10/07 05:47:55;;;;;;;0.30;0.30;;;9.90;99.90;;;;;;5074501;28;20043;-77
2021/10/07 05:50:20;;;;;;;0.00;0.00;;;9.90;99.90;;;;;;5074150;28;20032;-77
2021/10/07 05:52:46;;;;;;;0.00;0.00;;;9.90;99.90;;;;;;5074503;28;20032;-77
2021/10/07 05:55:12;;;;;;;0.00;0.00;;;9.90;99.90;;;;;;5074565;28;20020;-77
2021/10/07 05:57:38;;;;;;;0.00;0.00;;;10.00;99.90;;;;;;5074109;28;20438;-77
2021/10/07 06:00:08;;;;;;;0.00;0.00;;;9.90;99.90;;;;;;5073858;28;20025;-77
2021/10/07 06:02:37;;;;;;;0.73;0.73;;;9.90;99.90;;;;;;5074038;28;20055;-76
2021/10/07 06:05:05;;;;;;;0.00;0.00;;;9.90;99.90;;;;;;5070840;28;20784;-76
2021/10/07 06:07:30;;;;;;;0.00;0.00;;;10.00;99.90;;;;;;5051397;28;20577;-77
2021/10/07 06:09:56;;;;;;;0.22;0.22;;;10.00;99.90;;;;;;5066423;28;20025;-76
2021/10/07 06:12:22;;;;;;;0.00;0.00;;;10.00;99.90;;;;;;5055056;28;20052;-75
2021/10/07 06:14:47;;;;;;;0.22;0.10;;;10.00;99.90;;;;;;5055441;28;20020;-76
2021/10/07 06:17:14;;;;;;;0.00;0.00;;;10.00;99.90;;;;;;5060338;28;20028;-76
2021/10/07 06:19:42;;;;;;;0.30;0.22;;;10.10;99.90;;;;;;5059571;28;20029;-76
2021/10/07 06:22:08;;;;;;;0.00;0.00;;;10.10;99.90;;;;;;5069132;28;20075;-76
2021/10/07 06:24:34;;;;;;;0.00;0.00;;;10.10;99.90;;;;;;5053332;28;20537;-76
2021/10/07 06:27:00;;;;;;;0.00;0.00;;;10.10;99.90;;;;;;5052969;28;20028;-76
2021/10/07 06:29:27;;;;;;;0.77;0.35;;;10.20;99.90;;;;;;5051251;28;20404;-76
2021/10/07 06:31:53;;;;;;;0.25;0.25;;;10.20;99.90;;;;;;5063157;28;20036;-76
2021/10/07 06:34:19;;;;;;;0.00;0.00;;;10.20;99.90;;;;;;5054114;28;20035;-76
2021/10/07 06:36:44;;;;;;;0.00;0.00;;;10.20;99.90;;;;;;5064102;28;20020;-75
2021/10/07 06:39:10;;;;;;;0.00;0.00;;;10.30;99.90;;;;;;5042247;28;20036;-77
2021/10/07 06:41:36;;;;;;;9.32;0.20;;;10.30;99.90;;;;;;5046952;28;20055;-77
2021/10/07 06:44:03;;;;;;;0.00;0.00;;;10.30;99.90;;;;;;5064530;28;20025;-77
2021/10/07 06:46:29;;;;;;;0.10;0.10;;;10.40;99.90;;;;;;5049853;28;20103;-78
2021/10/07 06:48:55;;;;;;;0.55;0.47;;;10.40;99.90;;;;;;5053002;28;20096;-75
2021/10/07 06:51:28;;;;;;;0.52;0.45;;;10.40;99.90;;;;;;5059567;28;20037;-78
2021/10/07 06:53:57;;;;;;;0.00;0.00;;;10.50;99.90;;;;;;5072249;28;20077;-77
2021/10/07 06:56:23;;;;;;;0.00;0.00;;;10.60;99.90;;;;;;5046920;28;20570;-74
2021/10/07 06:58:52;;;;;;;0.40;0.38;;;10.60;99.90;;;;;;5057309;28;20411;-78
2021/10/07 07:01:23;;;;;;;1.88;0.98;;;10.70;99.90;;;;;;5057486;28;20472;-75
2021/10/07 07:03:50;;;;;;;0.28;0.28;;;10.70;99.90;;;;;;5044628;28;20025;-74
2021/10/07 07:06:16;;;;;;;0.00;0.00;;;10.70;99.90;;;;;;5054918;28;20384;-74
2021/10/07 07:08:42;;;;;;;0.88;0.88;;;10.80;99.90;;;;;;5071219;28;20078;-77
2021/10/07 07:11:08;;;;;;;6.40;0.90;;;10.90;99.90;;;;;;5045694;28;20036;-74
2021/10/07 07:13:33;;;;;;;0.63;0.63;;;10.90;99.90;;;;;;5046543;28;20191;-77
2021/10/07 07:15:59;;;;;;;2.85;0.20;;;11.00;99.90;;;;;;5056711;28;20024;-78
2021/10/07 07:18:25;;;;;;;10.50;2.28;;;11.10;99.90;;;;;;5065087;28;20035;-79
2021/10/07 07:20:51;;;;;;;0.38;0.22;;;11.10;99.90;;;;;;5063665;28;20491;-78
2021/10/07 07:23:16;;;;;;;0.00;0.00;;;11.20;99.90;;;;;;5041870;28;20022;-76
2021/10/07 07:25:42;;;;;;;0.75;0.40;;;11.30;99.90;;;;;;5032468;28;20611;-79
2021/10/07 07:28:08;;;;;;;0.00;0.00;;;11.50;99.90;;;;;;5039594;28;20036;-81
2021/10/07 07:30:34;;;;;;;0.57;0.57;;;13.00;99.90;;;;;;5060824;28;20059;-80
2021/10/07 07:32:59;;;;;;;0.13;0.05;;;14.60;99.90;;;;;;5041901;28;20142;-78
2021/10/07 07:35:29;;;;;;;0.43;0.43;;;14.70;99.90;;;;;;5045151;28;20545;-81
2021/10/07 07:37:55;;;;;;;0.00;0.00;;;13.90;99.90;;;;;;5048795;28;20021;-77
2021/10/07 07:40:21;;;;;;;0.55;0.10;;;13.40;99.90;;;;;;5045009;28;20400;-79
2021/10/07 07:42:47;;;;;;;0.10;0.10;;;13.10;99.90;;;;;;5055440;28;20029;-79
2021/10/07 07:45:13;;;;;;;0.00;0.00;;;12.90;99.90;;;;;;5055216;28;20032;-79
2021/10/07 07:47:41;;;;;;;1.60;1.20;;;12.80;99.90;;;;;;5053461;28;20381;-80
2021/10/07 07:50:08;;;;;;;0.10;0.10;;;12.80;99.90;;;;;;5051162;28;20092;-80
2021/10/07 07:52:34;;;;;;;10.20;0.35;;;12.80;99.90;;;;;;5056047;28;20017;-79
2021/10/07 07:55:00;;;;;;;0.38;0.38;;;12.80;99.90;;;;;;5056732;28;20027;-79
2021/10/07 07:57:25;;;;;;;7.65;0.95;;;12.80;99.90;;;;;;5048816;28;20040;-81
2021/10/07 07:59:51;;;;;;;2.08;1.27;;;12.80;99.90;;;;;;5054475;28;20074;-79
2021/10/07 08:02:17;;;;;;;0.00;0.00;;;12.90;99.90;;;;;;5060334;28;20029;-79
2021/10/07 08:04:46;;;;;;;0.10;0.10;;;13.20;99.90;;;;;;5070934;28;20024;-83
2021/10/07 08:07:22;;;;;;;1.25;0.43;;;13.50;99.90;;;;;;5048837;28;20039;-78
2021/10/07 08:09:48;;;;;;;0.10;0.10;;;14.40;99.90;;;;;;5051062;28;20037;-80
2021/10/07 08:12:15;;;;;;;0.00;0.00;;;14.90;99.90;;;;;;5059429;28;20028;-79
2021/10/07 08:14:45;;;;;;;0.95;0.28;;;15.30;99.90;;;;;;5063359;28;20492;-80
2021/10/07 08:17:11;;;;;;;0.10;0.10;;;15.70;99.90;;;;;;5064603;28;20150;-78
2021/10/07 08:19:37;;;;;;;5.38;0.30;;;16.30;99.90;;;;;;5052591;28;20096;-78
2021/10/07 08:22:04;;;;;;;0.17;0.13;;;17.60;99.90;;;;;;5052706;28;20028;-79
2021/10/07 08:24:32;;;;;;;0.00;0.00;;;19.30;99.90;;;;;;5047277;28;20498;-79
2021/10/07 08:26:58;;;;;;;0.00;0.00;;;20.00;99.90;;;;;;5054264;28;20025;-78
2021/10/07 08:29:23;;;;;;;0.00;0.00;;;19.40;99.90;;;;;;5051476;28;21271;-78
2021/10/07 08:31:49;;;;;;;0.10;0.10;;;19.20;99.90;;;;;;5048023;28;20025;-80
2021/10/07 08:34:15;;;;;;;0.15;0.15;;;19.20;99.90;;;;;;5050543;28;20096;-76
2021/10/07 08:36:45;;;;;;;0.85;0.13;;;19.50;99.90;;;;;;5046989;28;20029;-79
2021/10/07 08:39:12;;;;;;;0.20;0.20;;;19.50;99.90;;;;;;5051959;28;20040;-81
2021/10/07 08:41:39;;;;;;;0.22;0.22;;;19.10;99.90;;;;;;5055785;28;20376;-80
2021/10/07 08:44:05;;;;;;;0.80;0.20;;;18.60;99.90;;;;;;5052401;28;20803;-78
2021/10/07 08:46:31;;;;;;;0.00;0.00;;;18.50;99.90;;;;;;5065104;28;20024;-78
2021/10/07 08:48:57;;;;;;;0.10;0.10;;;18.40;99.90;;;;;;5065030;28;20027;-79
2021/10/07 08:51:22;;;;;;;0.10;0.10;;;18.40;99.90;;;;;;5055646;28;20089;-80
2021/10/07 08:53:48;;;;;;;0.20;0.10;;;18.70;99.90;;;;;;5054078;28;20029;-80
2021/10/07 08:56:14;;;;;;;0.25;0.25;;;18.90;99.90;;;;;;5066185;28;20070;-77
2021/10/07 08:58:39;;;;;;;0.35;0.35;;;19.10;99.90;;;;;;5053843;28;20052;-78
2021/10/07 09:01:06;;;;;;;0.10;0.10;;;19.20;99.90;;;;;;5052528;28;20036;-76
2021/10/07 09:03:39;;;;;;;0.10;0.10;;;19.20;99.90;;;;;;5053487;28;20025;-83
2021/10/07 09:06:13;;;;;;;0.45;0.45;;;19.30;99.90;;;;;;5055365;28;20048;-82
2021/10/07 09:08:44;;;;;;;0.00;0.00;;;19.50;99.90;;;;;;5050566;28;20101;-80
2021/10/07 09:11:13;;;;;;;0.20;0.20;;;19.60;99.90;;;;;;5067036;28;20052;-80
2021/10/07 09:13:39;;;;;;;0.00;0.00;;;19.90;99.90;;;;;;5060283;28;20036;-80
2021/10/07 09:16:05;;;;;;;1.85;0.52;;;20.10;99.90;;;;;;5050067;28;20024;-81
2021/10/07 09:18:32;;;;;;;0.57;0.35;;;20.30;99.90;;;;;;5061164;28;20025;-82
2021/10/07 09:20:59;;;;;;;19.80;2.67;;;21.20;99.80;;;;;;5065762;28;20043;-82
2021/10/07 09:23:30;;;;;;;1.23;0.50;;;22.20;98.10;;;;;;5054274;28;20111;-80
2021/10/07 09:26:12;;;;;;;5.57;1.30;;;23.30;95.70;;;;;;5066747;28;20135;-81
2021/10/07 09:28:48;;;;;;;;;;;24.40;94.50;;;;;;5044753;28;20021;-80
2021/10/07 09:31:14;;;;;;;0.20;0.20;;;24.60;93.20;;;;;;5052703;28;20007;-81
2021/10/07 09:33:41;;;;;;;0.20;0.20;;;23.80;93.60;;;;;;5054366;28;20113;-82
2021/10/07 09:36:11;;;;;;;0.20;0.20;;;22.40;95.70;;;;;;5051337;28;20055;-81
2021/10/07 09:38:37;;;;;;;0.85;0.20;;;21.10;97.20;;;;;;5056710;28;20095;-78
2021/10/07 09:41:15;;;;;;;0.10;0.10;;;20.30;97.80;;;;;;5064720;28;20128;-78
2021/10/07 09:43:46;;;;;;;0.20;0.20;;;19.80;99.10;;;;;;5077123;28;20101;-79
2021/10/07 09:46:12;;;;;;;0.00;0.00;;;19.50;99.50;;;;;;5077832;28;20056;-79
2021/10/07 09:48:41;;;;;;;0.00;0.00;;;19.20;99.90;;;;;;5059219;28;20242;-78
2021/10/07 09:51:15;;;;;;;0.00;0.00;;;19.00;99.90;;;;;;5063632;28;20025;-78
2021/10/07 09:53:45;;;;;;;0.17;0.10;;;18.80;99.90;;;;;;5052460;28;20021;-78
2021/10/07 09:56:25;;;;;;;0.10;0.10;;;18.60;99.90;;;;;;5067333;28;20075;-77
2021/10/07 09:58:51;;;;;;;0.30;0.20;;;18.70;99.90;;;;;;5058868;28;20069;-79
2021/10/07 10:01:17;;;;;;;0.00;0.00;;;18.60;99.90;;;;;;5062040;28;20029;-78
2021/10/07 10:03:43;;;;;;;0.00;0.00;;;18.60;99.90;;;;;;5065948;28;20024;-80
2021/10/07 10:06:09;;;;;;;1.83;0.57;;;18.60;99.90;;;;;;5055043;28;20070;-80
2021/10/07 10:08:35;;;;;;;0.00;0.00;;;18.50;99.90;;;;;;5068353;28;20096;-79
2021/10/07 10:11:01;;;;;;;0.28;0.15;;;18.60;99.90;;;;;;5048189;28;20082;-82
2021/10/07 10:13:27;;;;;;;0.00;0.00;;;18.60;99.90;;;;;;5062564;28;20020;-80
2021/10/07 10:15:53;;;;;;;0.00;0.00;;;18.60;99.90;;;;;;5078845;28;20029;-79
2021/10/07 10:18:18;;;;;;;4.10;1.30;;;18.60;99.90;;;;;;5045581;28;20060;-80
2021/10/07 10:20:51;;;;;;;0.65;0.10;;;18.60;99.90;;;;;;5043441;28;20021;-78
2021/10/07 10:23:23;;;;;;;0.00;0.00;;;18.60;99.90;;;;;;5042967;28;20025;-79
2021/10/07 10:26:10;;;;;;;0.13;0.13;;;18.70;99.90;;;;;;5051988;28;20037;-79
2021/10/07 10:28:39;;;;;;;0.63;0.60;;;18.70;99.90;;;;;;5052269;28;20664;-83
2021/10/07 10:31:11;;;;;;;0.10;0.00;;;18.80;99.90;;;;;;5051319;28;20120;-78
2021/10/07 10:33:40;;;;;;;1.33;0.20;;;18.80;99.90;;;;;;5052357;28;20922;-78
2021/10/07 10:36:25;;;;;;;0.10;0.10;;;19.00;99.90;;;;;;5057629;28;20512;-78
2021/10/07 10:39:28;;;;;;;0.10;0.10;;;19.00;99.90;;;;;;5057823;28;20017;-78
2021/10/07 10:42:00;;;;;;;0.15;0.15;;;19.00;99.90;;;;;;5054869;28;20032;-78
2021/10/07 10:44:32;;;;;;;0.20;0.20;;;19.10;99.90;;;;;;5061655;28;20032;-78
2021/10/07 10:47:13;;;;;;;0.75;0.75;;;19.20;99.90;;;;;;5058523;28;20024;-79
2021/10/07 10:49:50;;;;;;;3.50;1.27;;;19.20;99.90;;;;;;5064520;28;20036;-79
2021/10/07 10:52:21;;;;;;;0.28;0.28;;;19.30;99.90;;;;;;5068105;28;20023;-77
2021/10/07 10:54:50;;;;;;;0.70;0.15;;;19.20;99.90;;;;;;5051626;28;20035;-79
2021/10/07 10:57:44;;;;;;;0.17;0.05;;;19.20;98.40;;;;;;5051025;28;20017;-79
2021/10/07 11:00:20;;;;;;;1.08;0.90;;;19.30;99.50;;;;;;5048874;28;20033;-78
2021/10/07 11:02:49;;;;;;;0.08;0.08;;;19.30;99.00;;;;;;5044837;28;20028;-78
2021/10/07 11:05:22;;;;;;;0.10;0.10;;;19.60;99.50;;;;;;5050979;28;20099;-79
2021/10/07 11:08:21;;;;;;;0.00;0.00;;;19.70;98.50;;;;;;5052979;28;20048;-79
2021/10/07 11:10:49;;;;;;;1.55;0.32;;;20.00;98.20;;;;;;5049360;28;20059;-80
2021/10/07 11:13:24;;;;;;;0.10;0.00;;;20.40;98.30;;;;;;5049934;28;20432;-76
2021/10/07 11:16:00;;;;;;;7.55;0.13;;;20.60;97.00;;;;;;5049947;28;20105;-79
2021/10/07 11:18:35;;;;;;;0.28;0.20;;;20.70;97.30;;;;;;5049907;28;20018;-80
2021/10/07 11:21:05;;;;;;;0.32;0.30;;;20.70;96.70;;;;;;5046673;28;20086;-80
2021/10/07 11:23:32;;;;;;;0.00;0.00;;;20.60;96.90;;;;;;5047066;28;20039;-80
2021/10/07 11:26:00;;;;;;;0.00;0.00;;;20.40;96.40;;;;;;5069642;28;20121;-76
2021/10/07 11:28:33;;;;;;;0.00;0.00;;;20.20;96.20;;;;;;5057151;28;20029;-76
2021/10/07 11:31:10;;;;;;;0.08;0.08;;;20.00;97.40;;;;;;5051609;28;20025;-76
2021/10/07 11:33:41;;;;;;;0.13;0.13;;;19.80;96.00;;;;;;5048236;28;20032;-80
2021/10/07 11:36:10;;;;;;;0.00;0.00;;;19.70;96.80;;;;;;5040153;28;20645;-77
2021/10/07 11:38:41;;;;;;;0.00;0.00;;;19.70;96.70;;;;;;5047635;28;20102;-81
2021/10/07 11:41:12;;;;;;;0.15;0.15;;;19.60;97.90;;;;;;5052573;28;20534;-80
2021/10/07 11:43:38;;;;;;;0.00;0.00;;;19.60;97.40;;;;;;5052665;28;20029;-80
2021/10/07 11:46:06;;;;;;;0.20;0.03;;;19.60;96.30;;;;;;5070937;28;20077;-79
2021/10/07 11:48:32;;;;;;;0.95;0.00;;;19.50;96.30;;;;;;5075814;28;20665;-78
2021/10/07 11:51:06;;;;;;;0.00;0.00;;;19.60;98.10;;;;;;5071723;28;20045;-78
2021/10/07 11:53:42;;;;;;;0.00;0.00;;;19.80;96.90;;;;;;5078236;28;20033;-78
2021/10/07 11:56:23;;;;;;;0.05;0.05;;;20.00;96.20;;;;;;5055975;28;20056;-77
2021/10/07 11:59:00;;;;;;;0.00;0.00;;;20.00;96.50;;;;;;5048377;28;20014;-77
2021/10/07 12:01:31;;;;;;;0.28;0.20;;;20.20;96.20;;;;;;5047194;28;20403;-80
2021/10/07 12:03:59;;;;;;;0.10;0.10;;;20.40;96.10;;;;;;5043549;28;20021;-77
2021/10/07 12:06:26;;;;;;;0.10;0.10;;;20.30;95.80;;;;;;5046962;28;20455;-78
2021/10/07 12:08:52;;;;;;;0.00;0.00;;;20.30;96.00;;;;;;5049902;28;20013;-78
2021/10/07 12:11:22;;;;;;;0.00;0.00;;;20.60;98.10;;;;;;5054375;28;20036;-78
2021/10/07 12:13:51;;;;;;;0.00;0.00;;;20.50;95.70;;;;;;5047797;28;20720;-78
2021/10/07 12:16:21;;;;;;;1.27;1.13;;;20.40;96.00;;;;;;5047681;28;20414;-78
2021/10/07 12:18:55;;;;;;;0.00;0.00;;;20.30;97.20;;;;;;5048776;28;20506;-78
2021/10/07 12:21:26;;;;;;;0.00;0.00;;;20.40;97.00;;;;;;5048113;28;20033;-79
2021/10/07 12:24:09;;;;;;;0.03;0.03;;;20.40;96.00;;;;;;5051091;28;20040;-78
2021/10/07 12:26:49;;;;;;;0.00;0.00;;;20.50;96.80;;;;;;5042761;28;20037;-78
2021/10/07 12:29:22;;;;;;;0.00;0.00;;;20.70;95.20;;;;;;5047959;28;20032;-78
2021/10/07 12:31:56;;;;;;;0.20;0.20;;;20.60;95.60;;;;;;5048502;28;20021;-79
2021/10/07 12:34:30;;;;;;;0.00;0.00;;;20.70;96.50;;;;;;5049778;28;20783;-80
2021/10/07 12:36:58;;;;;;;3.22;0.85;;;20.90;96.50;;;;;;5046628;28;20384;-82
2021/10/07 12:39:31;;;;;;;0.17;0.17;;;21.10;95.10;;;;;;5049217;28;20025;-82
2021/10/07 12:42:09;;;;;;;0.00;0.00;;;21.40;94.40;;;;;;5048554;28;20070;-79
2021/10/07 12:44:46;;;;;;;0.55;0.28;;;21.30;94.70;;;;;;5046883;28;20530;-80
2021/10/07 12:47:18;;;;;;;0.65;0.47;;;21.20;95.00;;;;;;5047582;28;20040;-77
2021/10/07 12:49:49;;;;;;;0.10;0.10;;;21.10;93.80;;;;;;5044872;28;20102;-78
2021/10/07 12:52:26;;;;;;;2.42;0.90;;;21.10;94.70;;;;;;5049512;28;20029;-79
2021/10/07 12:54:53;;;;;;;0.10;0.10;;;21.00;94.60;;;;;;5050595;28;20051;-79
2021/10/07 12:57:47;;;;;;;0.00;0.00;;;21.20;94.20;;;;;;5052010;28;20074;-82